瑞翔 さん プロフィール

  •  
瑞翔さん: 気象予報士の航空気象
ハンドル名瑞翔 さん
ブログタイトル気象予報士の航空気象
ブログURLhttp://weathereucalyptus.blog115.fc2.com/
サイト紹介文航空気象は3次元での解析が必要となり、予想は地上天の数倍の難しさ。日々、様々な事象を解析!!
自由文未開の航空気象。気象予報士の資格を数年前に取得して以来、興味はありつつもなかなか手をつけなかった分野に、あらためて挑戦しようとこのブログを立ち上げます。
参加カテゴリー
更新頻度(1年)情報提供15回 / 365日(平均0.3回/週) - 参加 2009/02/06 00:48

瑞翔 さんのブログ記事

  • 名古屋で積雪
  • 名古屋ってたまに降る。センター試験の日だし、たいへんそう。慣れていなさそうだし。そうそう、2020年からセンター試験が大きく変わるみたいね。英語のスピーキング能力を評価するそうだ。機械で。機械で判定するなら、そのうり語学能力なんて不要になるんじゃないでしょうか。機械が聞いて、機械が話す。。。ほんやくこんにゃくの出来上がり。耳に小型マイクを常に装着し、無線で端末と通信しながら、自動翻訳。2020年より早 [続きを読む]
  • 夏の夜、嵐の後で
  •  台風9号の影響で、山手線で倒木など、鉄道が乱れまくっている。成田空港の管制塔では、強風により管制塔での作業が危険ということで非難し、滑走路閉鎖。これらの影響は夜になっても続き、鉄道は乱れ続けている。強風と雨が収まってきた夜の11時、近所の林から、セミが真昼のように鳴きまくっている。昼間に鳴けなかったからだろうか、修正にしても、今夜はうるさくて眠れない。 [続きを読む]
  • 空気の湿り具合が一変した一日
  • 夕方から晴れてきた26日のよるは風が弱く、霧が発生しやすい条件が整っていました。成田空港の夜中、かなり視程が落ちています。RJAA 261600Z 17002KT 0900 R16R/0300V0400N R16L/0150V0200N FG FEW000 SCT001 07/06 Q1003 NOSIG RMK 1ST000 3ST001 A2963 5000S-SW夜明け前もかなり厳しい状況。RJAA 262021Z 26004KT 220V300 0600 R16R/0250V0550N R16L/0300N FG FEW000 SCT002 BKN004 06/06 Q1004 RMK 1ST000 4ST002 6ST004 A2967 [続きを読む]
  • さむい
  • RJTT 250300Z 02014KT 2800 -RA BR FEW008 SCT010 BKN020 09/07 Q1018 TEMPO FEW005 BKN008 RMK 1ST008 3CU010 6SC020 A3007RJAA 250300Z 0
    4010KT 360V070 9000 -RA FEW008 BKN030 BKN040 09/07 Q1017 TEMPO 4000 RA BR FEW005 BKN008 RMK 1ST008 5SC030 6SC040 A300525日の正
    午、羽田成田ともに雨で気温は9度。いきなりさむくなった。ラーメンが恋しい。RJTT 260300Z 33009KT 9
    999 FEW010 BKN020 BKN050 11/08 Q1006 NOSIG RMK 1S [続きを読む]